createdAt,value
2018-02-02T05:01:18.681Z,992.98
2018-02-02T05:01:44.172Z,993.02
2018-02-02T05:02:09.835Z,992.98
2018-02-02T05:02:35.373Z,992.95
2018-02-02T05:03:01.024Z,992.97
2018-02-02T05:03:26.576Z,992.9
2018-02-02T05:03:52.059Z,992.93
2018-02-02T05:04:17.566Z,992.94
2018-02-02T05:05:31.382Z,992.98
2018-02-02T05:05:56.881Z,992.94
2018-02-02T05:06:55.398Z,992.96
2018-02-02T05:07:20.874Z,992.98
2018-02-02T05:08:24.463Z,992.97
2018-02-02T05:08:49.978Z,993
2018-02-02T05:09:15.447Z,992.95
2018-02-02T05:09:40.974Z,992.98
2018-02-02T05:10:06.481Z,992.94
2018-02-02T05:10:31.983Z,992.99
2018-02-02T05:10:57.491Z,992.96
2018-02-02T05:11:23.002Z,992.95
2018-02-02T05:11:48.474Z,992.99
2018-02-02T05:12:13.946Z,992.96
2018-02-02T05:13:32.822Z,992.98
2018-02-02T05:13:58.314Z,993
2018-02-02T05:15:07.000Z,992.96
2018-02-02T05:15:32.498Z,992.97
2018-02-02T05:15:57.979Z,992.98
2018-02-02T05:16:23.497Z,992.96
2018-02-02T05:16:48.985Z,992.98
2018-02-02T05:17:14.498Z,993
2018-02-02T05:17:39.952Z,992.94
2018-02-02T05:18:05.466Z,993.05
2018-02-02T05:18:30.973Z,993.03
2018-02-02T05:18:56.453Z,992.99
2018-02-02T05:19:21.937Z,992.95
2018-02-02T05:19:47.421Z,992.97
2018-02-02T05:20:12.917Z,992.99
2018-02-02T05:20:38.396Z,993.03
2018-02-02T05:21:03.846Z,992.98
2018-02-02T05:21:29.348Z,993.03
2018-02-02T05:21:54.845Z,993.02
2018-02-02T05:22:20.332Z,992.99
2018-02-02T05:22:45.814Z,992.98
2018-02-02T05:23:11.328Z,992.98
2018-02-02T05:23:36.861Z,992.96
2018-02-02T05:24:02.360Z,993.03
2018-02-02T05:24:27.912Z,992.99
2018-02-02T05:24:53.352Z,992.98
2018-02-02T05:25:18.859Z,992.98
2018-02-02T05:25:44.372Z,992.96
2018-02-02T05:26:09.823Z,992.98
2018-02-02T05:26:35.310Z,992.99
2018-02-02T05:27:00.892Z,992.95
2018-02-02T05:27:26.332Z,992.95
2018-02-02T05:27:51.829Z,992.97
2018-02-02T05:28:17.285Z,993.02
2018-02-02T05:28:42.768Z,992.94
2018-02-02T05:29:08.246Z,992.99
2018-02-02T05:29:33.733Z,992.95
2018-02-02T05:30:52.626Z,992.96
2018-02-02T05:31:18.142Z,993
2018-02-02T05:31:43.627Z,993.02
2018-02-02T05:32:09.104Z,993.02
2018-02-02T05:32:34.589Z,993.02
2018-02-02T05:33:00.088Z,992.98
2018-02-02T05:33:25.538Z,992.97
2018-02-02T05:33:51.029Z,993.04
2018-02-02T05:34:16.506Z,993.02
2018-02-02T05:34:41.991Z,993.04
2018-02-02T05:35:07.463Z,993
2018-02-02T05:35:32.950Z,993.04
2018-02-02T05:35:58.409Z,993.01
2018-02-02T05:36:23.895Z,993.01
2018-02-02T05:36:49.338Z,993.02
2018-02-02T05:37:52.932Z,993.05
2018-02-02T05:38:18.421Z,993
2018-02-02T05:38:43.924Z,993.04
2018-02-02T05:39:09.428Z,993.04
2018-02-02T05:39:34.892Z,993.05
2018-02-02T05:40:00.406Z,993.05
2018-02-02T05:40:25.904Z,993.05
2018-02-02T05:40:51.390Z,993.06
2018-02-02T05:41:16.862Z,993.06
2018-02-02T05:41:42.356Z,993.07
2018-02-02T05:42:07.843Z,993.03
2018-02-02T05:42:33.351Z,993.07
2018-02-02T05:43:36.958Z,993.02
2018-02-02T05:44:02.437Z,993.04
2018-02-02T05:44:27.925Z,993.02
2018-02-02T05:44:53.424Z,993.02
2018-02-02T05:45:18.916Z,993.03
2018-02-02T05:45:44.372Z,993.04
2018-02-02T05:46:09.879Z,993.01
2018-02-02T05:47:23.644Z,993
2018-02-02T05:47:49.145Z,993.05
2018-02-02T05:48:14.638Z,993
2018-02-02T05:48:40.137Z,993.05
2018-02-02T05:49:05.609Z,993.03
2018-02-02T05:49:31.117Z,993.03
2018-02-02T05:49:56.673Z,993.04
2018-02-02T05:50:22.140Z,993
2018-02-02T05:50:47.589Z,993.04
2018-02-02T05:51:13.099Z,993.02
2018-02-02T05:51:38.543Z,993.01
2018-02-02T05:52:04.021Z,993.04
2018-02-02T05:52:29.536Z,993.04
2018-02-02T05:52:54.989Z,993.02
2018-02-02T05:53:20.479Z,993.01
2018-02-02T05:53:45.948Z,993.03
2018-02-02T05:54:11.418Z,993.01
2018-02-02T05:54:36.870Z,993.02
2018-02-02T05:55:02.334Z,992.96
2018-02-02T05:55:28.288Z,992.98
2018-02-02T05:55:53.753Z,992.95
2018-02-02T05:56:19.273Z,993.03
2018-02-02T05:56:44.785Z,993.03
2018-02-02T05:57:10.244Z,992.99
2018-02-02T05:57:35.801Z,993.02
2018-02-02T05:58:01.373Z,993.04
2018-02-02T05:58:26.832Z,992.99
2018-02-02T05:58:52.290Z,993.02
2018-02-02T05:59:17.798Z,993.02
2018-02-02T05:59:43.245Z,993.04
2018-02-02T06:00:08.721Z,993.07
2018-02-02T06:00:34.235Z,993.08
2018-02-02T06:00:59.717Z,993.03
2018-02-02T06:01:25.172Z,993.06
2018-02-02T06:01:50.882Z,993.08
2018-02-02T06:02:16.399Z,993.09
2018-02-02T06:02:41.871Z,993.11
2018-02-02T06:03:07.393Z,993.09
2018-02-02T06:03:32.934Z,993.05
2018-02-02T06:03:58.393Z,993.04
2018-02-02T06:04:23.881Z,993.05
2018-02-02T06:04:49.371Z,993.05
2018-02-02T06:05:15.006Z,993.09
2018-02-02T06:05:40.412Z,993.03
2018-02-02T06:06:05.945Z,993.04
2018-02-02T06:06:31.482Z,993.08
2018-02-02T06:06:56.952Z,993.02
2018-02-02T06:07:22.402Z,993.03
2018-02-02T06:07:47.875Z,993.02
2018-02-02T06:08:13.379Z,993.01
2018-02-02T06:08:38.814Z,993.02
2018-02-02T06:09:04.300Z,993.04
2018-02-02T06:09:29.798Z,993
2018-02-02T06:09:55.228Z,992.98
2018-02-02T06:10:20.706Z,992.95
2018-02-02T06:10:46.201Z,992.95
2018-02-02T06:11:11.714Z,992.96
2018-02-02T06:11:37.176Z,992.95
2018-02-02T06:12:02.724Z,992.96
2018-02-02T06:12:28.179Z,992.91
2018-02-02T06:12:53.625Z,992.94
2018-02-02T06:13:19.112Z,992.98
2018-02-02T06:14:37.962Z,992.92
2018-02-02T06:15:03.449Z,992.92
2018-02-02T06:15:28.907Z,992.9
2018-02-02T06:15:54.367Z,992.93
2018-02-02T06:16:19.811Z,992.9
2018-02-02T06:16:45.264Z,992.84
2018-02-02T06:17:10.742Z,992.89
2018-02-02T06:18:14.286Z,992.87
2018-02-02T06:18:39.771Z,992.87
2018-02-02T06:19:05.230Z,992.84
2018-02-02T06:20:24.457Z,992.88
2018-02-02T06:20:49.934Z,992.86
2018-02-02T06:21:15.413Z,992.86
2018-02-02T06:21:40.908Z,992.88
2018-02-02T06:22:06.334Z,992.88
2018-02-02T06:22:31.779Z,992.85
2018-02-02T06:22:57.215Z,992.85
2018-02-02T06:23:22.640Z,992.89
2018-02-02T06:23:48.135Z,992.83
2018-02-02T06:24:13.596Z,992.85
2018-02-02T06:24:39.065Z,992.8
2018-02-02T06:25:04.540Z,992.83
2018-02-02T06:25:30.023Z,992.84
2018-02-02T06:25:55.507Z,992.85
2018-02-02T06:26:20.967Z,992.83
2018-02-02T06:26:46.454Z,992.88
2018-02-02T06:28:05.297Z,992.88
2018-02-02T06:28:30.775Z,992.84
2018-02-02T06:28:56.227Z,992.91
2018-02-02T06:29:21.679Z,992.91
2018-02-02T06:29:47.160Z,992.88
2018-02-02T06:30:12.697Z,992.91
2018-02-02T06:30:38.241Z,992.93
2018-02-02T06:31:03.717Z,992.94
2018-02-02T06:31:29.194Z,992.89
2018-02-02T06:31:54.611Z,992.94
2018-02-02T06:32:20.093Z,992.96
2018-02-02T06:32:45.520Z,992.89
2018-02-02T06:33:10.972Z,992.87
2018-02-02T06:33:36.413Z,992.95
2018-02-02T06:34:01.858Z,992.96
2018-02-02T06:34:27.368Z,992.91
2018-02-02T06:34:52.786Z,992.91
2018-02-02T06:35:18.233Z,992.9
2018-02-02T06:35:43.774Z,992.91
2018-02-02T06:36:47.350Z,992.9
2018-02-02T06:37:12.816Z,992.95
2018-02-02T06:37:38.338Z,992.9
2018-02-02T06:38:03.814Z,992.94
2018-02-02T06:38:29.271Z,992.92
2018-02-02T06:38:54.730Z,992.93
2018-02-02T06:39:20.203Z,992.96
2018-02-02T06:39:45.668Z,992.92
2018-02-02T06:40:11.165Z,992.94
2018-02-02T06:40:36.643Z,992.9
2018-02-02T06:41:02.114Z,992.96
2018-02-02T06:41:27.638Z,992.87
2018-02-02T06:41:53.110Z,992.89
2018-02-02T06:42:18.661Z,992.94
2018-02-02T06:42:44.088Z,992.95
2018-02-02T06:43:09.573Z,992.91
2018-02-02T06:43:35.021Z,992.88
2018-02-02T06:44:00.480Z,992.89
2018-02-02T06:44:25.937Z,992.88
2018-02-02T06:44:51.505Z,992.89
2018-02-02T06:45:16.932Z,992.88
2018-02-02T06:45:42.378Z,992.92
2018-02-02T06:46:07.839Z,992.95
2018-02-02T06:46:33.326Z,992.9
2018-02-02T06:46:58.855Z,992.9
2018-02-02T06:47:24.281Z,992.94
2018-02-02T06:47:49.845Z,992.97
2018-02-02T06:48:15.270Z,992.93
2018-02-02T06:48:40.887Z,992.93
2018-02-02T06:49:44.458Z,992.95
2018-02-02T06:50:09.884Z,992.97
2018-02-02T06:50:35.351Z,992.99
2018-02-02T06:51:00.798Z,992.97
2018-02-02T06:51:26.288Z,993
2018-02-02T06:51:51.697Z,992.98
2018-02-02T06:52:17.185Z,993
2018-02-02T06:52:42.609Z,992.99
2018-02-02T06:53:08.067Z,992.99
2018-02-02T06:53:33.535Z,993.03
2018-02-02T06:53:59.012Z,993.01
2018-02-02T06:54:24.492Z,993.06
2018-02-02T06:54:49.970Z,992.98
2018-02-02T06:55:15.418Z,993.03
2018-02-02T06:55:40.871Z,993.02
2018-02-02T06:56:06.365Z,993.02
2018-02-02T06:56:31.787Z,993.02
2018-02-02T06:56:57.287Z,993.02
2018-02-02T06:57:22.740Z,993.05
2018-02-02T06:57:48.188Z,993.02
2018-02-02T06:58:13.670Z,993.02
2018-02-02T06:58:39.169Z,993.03
2018-02-02T06:59:04.646Z,993.03
2018-02-02T06:59:30.050Z,993.04
2018-02-02T06:59:55.491Z,993.06
2018-02-02T07:00:20.956Z,993
2018-02-02T07:00:46.444Z,993.01
2018-02-02T07:01:11.910Z,993.03
2018-02-02T07:01:37.348Z,993.04
2018-02-02T07:02:02.797Z,992.99
2018-02-02T07:02:28.256Z,993.01
2018-02-02T07:02:53.711Z,993.03
2018-02-02T07:03:19.194Z,993.04
2018-02-02T07:03:44.772Z,993.02
2018-02-02T07:04:10.261Z,993.04
2018-02-02T07:05:18.943Z,993.07
2018-02-02T07:05:44.700Z,993.09
2018-02-02T07:06:10.206Z,993.08
2018-02-02T07:06:35.672Z,993.06
2018-02-02T07:07:01.136Z,993.1
2018-02-02T07:07:26.599Z,993.08
2018-02-02T07:07:52.062Z,993.11
2018-02-02T07:08:17.521Z,993.08
2018-02-02T07:08:42.983Z,993.08
2018-02-02T07:09:08.435Z,993.09
2018-02-02T07:09:33.929Z,993.07
2018-02-02T07:09:59.392Z,993.07
2018-02-02T07:10:24.848Z,993.07
2018-02-02T07:10:50.325Z,993.07
2018-02-02T07:11:15.810Z,993.13
2018-02-02T07:11:41.315Z,993.12
2018-02-02T07:12:06.798Z,993.08
2018-02-02T07:13:25.673Z,993.1
2018-02-02T07:13:51.239Z,993.08
2018-02-02T07:14:16.639Z,993.1
2018-02-02T07:14:42.097Z,993.1
2018-02-02T07:15:07.611Z,993.07
2018-02-02T07:15:33.044Z,993.13
2018-02-02T07:15:58.501Z,993.15
2018-02-02T07:16:23.988Z,993.09
2018-02-02T07:16:49.421Z,993.12
2018-02-02T07:17:14.870Z,993.12
2018-02-02T07:17:40.327Z,993.11
2018-02-02T07:18:05.772Z,993.09
2018-02-02T07:18:31.219Z,993.14
2018-02-02T07:18:56.677Z,993.17
2018-02-02T07:19:22.159Z,993.12
2018-02-02T07:19:47.636Z,993.15
2018-02-02T07:20:13.077Z,993.16
2018-02-02T07:20:38.538Z,993.15
2018-02-02T07:21:04.027Z,993.15
2018-02-02T07:21:29.492Z,993.16
2018-02-02T07:21:54.972Z,993.13
2018-02-02T07:22:20.468Z,993.16
2018-02-02T07:22:46.010Z,993.19
2018-02-02T07:23:54.639Z,993.16
2018-02-02T07:24:20.117Z,993.18
2018-02-02T07:24:45.611Z,993.18
2018-02-02T07:25:11.059Z,993.22
2018-02-02T07:25:36.572Z,993.21
2018-02-02T07:26:02.053Z,993.22
2018-02-02T07:26:27.519Z,993.22
2018-02-02T07:26:53.041Z,993.24
2018-02-02T07:27:18.522Z,993.19
2018-02-02T07:27:44.001Z,993.23
2018-02-02T07:28:09.473Z,993.22
2018-02-02T07:28:34.938Z,993.24
2018-02-02T07:29:00.465Z,993.24
2018-02-02T07:29:25.939Z,993.22
2018-02-02T07:29:51.414Z,993.21
2018-02-02T07:30:16.855Z,993.27
2018-02-02T07:30:42.324Z,993.3
2018-02-02T07:31:07.827Z,993.29
2018-02-02T07:31:33.256Z,993.27
2018-02-02T07:31:58.751Z,993.33
2018-02-02T07:32:24.208Z,993.3
2018-02-02T07:32:49.655Z,993.31
2018-02-02T07:33:15.207Z,993.32
2018-02-02T07:33:40.587Z,993.35
2018-02-02T07:34:49.258Z,993.34
2018-02-02T07:35:14.765Z,993.39
2018-02-02T07:35:40.241Z,993.38
2018-02-02T07:36:05.692Z,993.4
2018-02-02T07:36:31.156Z,993.36
2018-02-02T07:36:56.710Z,993.35
2018-02-02T07:37:22.147Z,993.32
2018-02-02T07:37:47.598Z,993.37
2018-02-02T07:39:01.347Z,993.39
2018-02-02T07:39:26.847Z,993.39
2018-02-02T07:39:52.254Z,993.33
2018-02-02T07:40:17.738Z,993.37
2018-02-02T07:40:43.206Z,993.34
2018-02-02T07:41:08.665Z,993.32
2018-02-02T07:41:34.112Z,993.37
2018-02-02T07:41:59.552Z,993.35
2018-02-02T07:42:24.992Z,993.38
2018-02-02T07:42:50.484Z,993.35
2018-02-02T07:43:15.912Z,993.36
2018-02-02T07:43:41.381Z,993.37
2018-02-02T07:44:06.839Z,993.4
2018-02-02T07:44:32.301Z,993.38
2018-02-02T07:44:57.762Z,993.36
2018-02-02T07:45:23.266Z,993.39
2018-02-02T07:45:48.745Z,993.4
2018-02-02T07:46:14.230Z,993.4
2018-02-02T07:46:39.681Z,993.39
2018-02-02T07:47:05.150Z,993.42
2018-02-02T07:47:30.603Z,993.46
2018-02-02T07:47:56.046Z,993.4
2018-02-02T07:48:21.510Z,993.42
2018-02-02T07:48:47.002Z,993.42
2018-02-02T07:49:12.459Z,993.43
2018-02-02T07:49:37.938Z,993.46
2018-02-02T07:50:03.400Z,993.44
2018-02-02T07:50:28.900Z,993.44
2018-02-02T07:50:54.345Z,993.42
2018-02-02T07:51:19.832Z,993.47
2018-02-02T07:51:45.238Z,993.43
2018-02-02T07:52:10.709Z,993.45
2018-02-02T07:52:36.175Z,993.46
2018-02-02T07:53:01.609Z,993.5
2018-02-02T07:53:27.106Z,993.5
2018-02-02T07:53:52.561Z,993.46
2018-02-02T07:54:18.042Z,993.52
2018-02-02T07:54:43.471Z,993.49
2018-02-02T07:55:08.964Z,993.51
2018-02-02T07:55:34.441Z,993.5
2018-02-02T07:55:59.911Z,993.49
2018-02-02T07:56:25.391Z,993.47
2018-02-02T07:56:50.833Z,993.52
2018-02-02T07:57:16.340Z,993.53
2018-02-02T07:57:41.802Z,993.53
2018-02-02T07:58:07.201Z,993.52
2018-02-02T07:58:32.698Z,993.53
2018-02-02T07:58:58.192Z,993.46
2018-02-02T07:59:23.802Z,993.5
2018-02-02T07:59:49.091Z,993.51
2018-02-02T08:00:14.592Z,993.53
2018-02-02T08:00:40.055Z,993.52
2018-02-02T08:01:05.508Z,993.52
2018-02-02T08:01:31.025Z,993.51
2018-02-02T08:01:56.725Z,993.56
2018-02-02T08:02:22.154Z,993.57
2018-02-02T08:03:25.752Z,993.56
2018-02-02T08:03:51.217Z,993.56
2018-02-02T08:04:16.705Z,993.57
2018-02-02T08:04:42.152Z,993.58
2018-02-02T08:05:07.625Z,993.59
2018-02-02T08:05:33.191Z,993.59
2018-02-02T08:05:58.718Z,993.61
2018-02-02T08:06:24.205Z,993.57
2018-02-02T08:06:49.677Z,993.61
2018-02-02T08:07:15.187Z,993.62
2018-02-02T08:07:40.678Z,993.59
2018-02-02T08:08:06.146Z,993.61
2018-02-02T08:09:04.719Z,993.59
2018-02-02T08:09:30.198Z,993.6
2018-02-02T08:09:55.668Z,993.61
2018-02-02T08:10:21.206Z,993.62
2018-02-02T08:10:46.664Z,993.65
2018-02-02T08:11:12.126Z,993.63
2018-02-02T08:11:37.659Z,993.63
2018-02-02T08:12:03.150Z,993.62
2018-02-02T08:12:28.635Z,993.67
2018-02-02T08:12:54.089Z,993.64
2018-02-02T08:13:19.597Z,993.64
2018-02-02T08:13:45.212Z,993.65
2018-02-02T08:14:10.894Z,993.62
2018-02-02T08:14:36.591Z,993.62
2018-02-02T08:15:02.046Z,993.67
2018-02-02T08:15:27.527Z,993.64
2018-02-02T08:15:53.056Z,993.69
2018-02-02T08:16:18.520Z,993.68
2018-02-02T08:16:44.032Z,993.69
2018-02-02T08:17:09.497Z,993.75
2018-02-02T08:17:35.004Z,993.73
2018-02-02T08:18:00.462Z,993.7
2018-02-02T08:18:25.919Z,993.73
2018-02-02T08:18:51.452Z,993.73
2018-02-02T08:19:16.959Z,993.73
2018-02-02T08:19:42.521Z,993.74
2018-02-02T08:20:07.987Z,993.7
2018-02-02T08:20:33.466Z,993.71
2018-02-02T08:20:58.954Z,993.7
2018-02-02T08:21:24.415Z,993.76
2018-02-02T08:21:49.878Z,993.78
2018-02-02T08:22:15.405Z,993.76
2018-02-02T08:22:40.929Z,993.8
2018-02-02T08:23:06.439Z,993.77
2018-02-02T08:23:31.957Z,993.76
2018-02-02T08:23:57.430Z,993.79
2018-02-02T08:24:22.872Z,993.8
2018-02-02T08:24:48.366Z,993.82
2018-02-02T08:25:13.836Z,993.83
2018-02-02T08:25:39.321Z,993.79
2018-02-02T08:26:04.802Z,993.84
2018-02-02T08:26:30.227Z,993.83
2018-02-02T08:26:55.688Z,993.83
2018-02-02T08:27:21.146Z,993.88
2018-02-02T08:27:46.630Z,993.84
2018-02-02T08:28:12.130Z,993.84
2018-02-02T08:29:20.809Z,993.87
2018-02-02T08:29:46.296Z,993.89
2018-02-02T08:30:49.939Z,993.91
2018-02-02T08:31:15.412Z,993.88
2018-02-02T08:31:40.914Z,993.89
2018-02-02T08:32:06.373Z,993.87
2018-02-02T08:32:31.866Z,993.94
2018-02-02T08:32:57.317Z,993.88
2018-02-02T08:33:22.824Z,993.91
2018-02-02T08:33:48.277Z,993.94
2018-02-02T08:34:13.747Z,993.89
2018-02-02T08:34:39.264Z,993.94
2018-02-02T08:35:04.761Z,993.93
2018-02-02T08:35:30.279Z,993.91
2018-02-02T08:35:55.764Z,993.89
2018-02-02T08:36:21.234Z,993.91
2018-02-02T08:36:46.712Z,993.95
2018-02-02T08:37:12.167Z,993.95
2018-02-02T08:37:37.637Z,993.92
2018-02-02T08:38:03.126Z,993.9
2018-02-02T08:38:28.694Z,993.88
2018-02-02T08:38:54.232Z,993.97
2018-02-02T08:39:19.708Z,993.9
2018-02-02T08:39:45.127Z,993.92
2018-02-02T08:40:10.635Z,993.93
2018-02-02T08:41:14.242Z,993.96
2018-02-02T08:41:39.680Z,993.96
2018-02-02T08:42:05.131Z,993.94
2018-02-02T08:42:30.642Z,993.99
2018-02-02T08:43:44.393Z,993.96
2018-02-02T08:44:53.073Z,993.98
2018-02-02T08:45:18.537Z,993.94
2018-02-02T08:45:44.035Z,993.95
2018-02-02T08:46:09.534Z,993.97
2018-02-02T09:10:52.853Z,994.08
2018-02-02T09:11:18.538Z,994.07
2018-02-02T09:11:44.005Z,994.1
2018-02-02T09:12:09.525Z,994.08
2018-02-02T09:12:35.059Z,994.13
2018-02-02T09:13:53.972Z,994.15
2018-02-02T09:14:19.467Z,994.15
2018-02-02T09:14:44.993Z,994.12
2018-02-02T09:15:10.564Z,994.17
2018-02-02T09:16:29.462Z,994.18
2018-02-02T09:16:54.933Z,994.2
2018-02-02T09:17:20.477Z,994.14
2018-02-02T09:17:45.944Z,994.17
2018-02-02T09:18:11.450Z,994.19
2018-02-02T09:18:36.922Z,994.14
2018-02-02T09:19:02.442Z,994.2
2018-02-02T09:19:27.931Z,994.19
2018-02-02T09:19:53.441Z,994.23
2018-02-02T09:20:19.018Z,994.15
2018-02-02T09:20:44.710Z,994.18
2018-02-02T09:21:10.238Z,994.2
2018-02-02T09:21:35.709Z,994.18
2018-02-02T09:22:01.236Z,994.21
2018-02-02T09:22:26.757Z,994.2
2018-02-02T09:22:52.235Z,994.19
2018-02-02T09:23:17.738Z,994.2
2018-02-02T09:23:43.247Z,994.23
2018-02-02T09:24:08.755Z,994.2
2018-02-02T09:24:34.228Z,994.23
2018-02-02T09:24:59.733Z,994.23
2018-02-02T09:25:25.212Z,994.23
2018-02-02T09:25:50.675Z,994.29
2018-02-02T09:26:16.156Z,994.25
2018-02-02T09:26:41.663Z,994.28
2018-02-02T09:27:07.116Z,994.29
2018-02-02T09:27:32.646Z,994.26
2018-02-02T09:27:58.086Z,994.26
2018-02-02T09:28:23.642Z,994.28
2018-02-02T09:28:49.140Z,994.28
2018-02-02T09:29:14.627Z,994.3
2018-02-02T09:29:40.118Z,994.27
2018-02-02T09:30:05.568Z,994.24
2018-02-02T09:30:31.100Z,994.29
2018-02-02T09:30:56.629Z,994.28
2018-02-02T09:31:22.081Z,994.28
2018-02-02T09:31:47.623Z,994.31
2018-02-02T09:32:13.126Z,994.33
2018-02-02T09:32:38.601Z,994.28
2018-02-02T09:33:04.070Z,994.3
2018-02-02T09:33:29.615Z,994.29
2018-02-02T09:33:55.181Z,994.32
2018-02-02T09:34:20.724Z,994.3
2018-02-02T09:34:46.247Z,994.33
2018-02-02T09:36:05.192Z,994.31
2018-02-02T09:36:30.682Z,994.33
2018-02-02T09:36:56.158Z,994.3
2018-02-02T09:37:21.709Z,994.3
2018-02-02T09:37:47.150Z,994.33
2018-02-02T09:38:12.681Z,994.32
2018-02-02T09:38:38.209Z,994.33
2018-02-02T09:39:03.878Z,994.37
2018-02-02T09:39:29.483Z,994.34
2018-02-02T09:39:55.008Z,994.35
2018-02-02T09:40:20.501Z,994.33
2018-02-02T09:40:46.031Z,994.34
2018-02-02T09:41:11.543Z,994.4
2018-02-02T09:41:37.014Z,994.41
2018-02-02T09:42:02.529Z,994.41
2018-02-02T09:42:28.014Z,994.38
2018-02-02T09:42:53.495Z,994.37
2018-02-02T09:43:19.056Z,994.39
2018-02-02T09:43:44.659Z,994.39
2018-02-02T09:44:53.295Z,994.39
2018-02-02T09:45:18.850Z,994.38
2018-02-02T09:45:44.298Z,994.39
2018-02-02T09:46:09.808Z,994.45
2018-02-02T09:46:35.354Z,994.41
2018-02-02T09:47:00.824Z,994.41
2018-02-02T09:47:26.303Z,994.39
2018-02-02T09:47:51.819Z,994.45
2018-02-02T09:48:17.295Z,994.41
2018-02-02T09:48:42.786Z,994.44
2018-02-02T09:49:08.234Z,994.43
2018-02-02T09:49:33.709Z,994.44
2018-02-02T09:49:59.291Z,994.44
2018-02-02T09:50:24.761Z,994.42
2018-02-02T09:50:50.277Z,994.42
2018-02-02T09:51:15.778Z,994.45
2018-02-02T09:51:41.254Z,994.49
2018-02-02T09:52:06.837Z,994.47
2018-02-02T09:52:32.351Z,994.48
2018-02-02T09:52:57.816Z,994.46
2018-02-02T09:53:23.327Z,994.47
2018-02-02T09:53:48.881Z,994.49
2018-02-02T09:54:14.369Z,994.5
2018-02-02T09:54:39.848Z,994.5
2018-02-02T09:55:05.369Z,994.48
2018-02-02T09:55:30.854Z,994.52
2018-02-02T09:55:56.347Z,994.5
2018-02-02T09:56:21.855Z,994.47
2018-02-02T09:57:41.091Z,994.53
2018-02-02T09:58:06.575Z,994.52
2018-02-02T09:58:32.060Z,994.52
2018-02-02T09:58:57.533Z,994.53
2018-02-02T09:59:23.018Z,994.55
2018-02-02T09:59:48.544Z,994.54
2018-02-02T10:00:14.014Z,994.55
2018-02-02T10:00:39.533Z,994.57
2018-02-02T10:01:05.055Z,994.56
2018-02-02T10:01:30.535Z,994.57
2018-02-02T10:01:56.023Z,994.54
2018-02-02T10:02:21.524Z,994.57
2018-02-02T10:02:46.995Z,994.59
2018-02-02T10:03:12.473Z,994.61
2018-02-02T10:03:37.973Z,994.56
2018-02-02T10:04:03.486Z,994.6
2018-02-02T10:04:28.968Z,994.56
2018-02-02T10:04:54.505Z,994.6
2018-02-02T10:05:20.019Z,994.63
2018-02-02T10:05:45.490Z,994.66
2018-02-02T10:06:10.954Z,994.61
2018-02-02T10:06:36.444Z,994.59
2018-02-02T10:07:01.933Z,994.66
2018-02-02T10:07:27.413Z,994.65
2018-02-02T10:07:52.957Z,994.67
2018-02-02T10:08:18.463Z,994.69
2018-02-02T10:08:43.938Z,994.63
2018-02-02T10:09:09.449Z,994.69
2018-02-02T10:09:34.900Z,994.71
2018-02-02T10:10:00.396Z,994.67
2018-02-02T10:10:25.892Z,994.68
2018-02-02T10:10:51.391Z,994.72
2018-02-02T10:11:16.977Z,994.69
2018-02-02T10:11:42.608Z,994.71
2018-02-02T10:12:08.084Z,994.7
2018-02-02T10:13:21.870Z,994.73
2018-02-02T10:13:47.366Z,994.73
2018-02-02T10:14:12.849Z,994.72
2018-02-02T10:14:38.312Z,994.76
2018-02-02T10:15:03.820Z,994.72
2018-02-02T10:15:29.324Z,994.72
2018-02-02T10:15:54.789Z,994.76
2018-02-02T10:16:20.347Z,994.71
2018-02-02T10:16:45.819Z,994.77
2018-02-02T10:17:11.316Z,994.77
2018-02-02T10:17:36.786Z,994.75
2018-02-02T10:18:02.279Z,994.79
2018-02-02T10:18:27.768Z,994.79
2018-02-02T10:18:53.298Z,994.79
2018-02-02T10:19:18.830Z,994.79
2018-02-02T10:19:44.280Z,994.76
2018-02-02T10:21:03.956Z,994.76
2018-02-02T10:21:29.481Z,994.83
2018-02-02T10:21:55.000Z,994.8
2018-02-02T10:22:20.444Z,994.8
2018-02-02T10:22:45.904Z,994.81
2018-02-02T10:23:11.395Z,994.82
2018-02-02T10:23:36.872Z,994.81
2018-02-02T10:24:55.771Z,994.86
2018-02-02T10:25:21.240Z,994.81
2018-02-02T10:25:46.738Z,994.83
2018-02-02T10:26:12.189Z,994.87
2018-02-02T10:26:37.693Z,994.85
2018-02-02T10:27:03.160Z,994.8
2018-02-02T10:27:28.643Z,994.83
2018-02-02T10:27:54.142Z,994.86
2018-02-02T10:28:19.634Z,994.84
2018-02-02T10:28:45.124Z,994.84
2018-02-02T10:29:10.632Z,994.85
2018-02-02T10:29:36.140Z,994.83
2018-02-02T10:30:01.606Z,994.82
2018-02-02T10:30:27.100Z,994.86
2018-02-02T10:30:52.567Z,994.84
2018-02-02T10:31:18.063Z,994.8
2018-02-02T10:31:43.502Z,994.86
2018-02-02T10:32:09.067Z,994.85
2018-02-02T10:32:34.550Z,994.83
2018-02-02T10:33:00.207Z,994.85
2018-02-02T10:33:25.685Z,994.85
2018-02-02T10:33:51.198Z,994.84
2018-02-02T10:34:16.683Z,994.88
2018-02-02T10:34:42.196Z,994.84
2018-02-02T10:35:07.712Z,994.86
2018-02-02T10:35:33.210Z,994.88
2018-02-02T10:36:37.941Z,994.88
2018-02-02T10:37:03.432Z,994.85
2018-02-02T10:37:28.897Z,994.88
2018-02-02T10:37:54.358Z,994.89
2018-02-02T10:38:19.840Z,994.9
2018-02-02T10:38:45.351Z,994.9
2018-02-02T10:39:10.853Z,994.92
2018-02-02T10:39:36.409Z,994.9
2018-02-02T10:40:01.918Z,994.93
2018-02-02T10:40:27.412Z,994.92
2018-02-02T10:41:46.329Z,994.93
2018-02-02T10:42:11.842Z,994.96
2018-02-02T10:42:37.312Z,994.9
2018-02-02T10:43:02.833Z,994.96
2018-02-02T10:43:28.348Z,994.96
2018-02-02T10:43:53.885Z,994.97
2018-02-02T10:44:19.384Z,994.97
2018-02-02T10:44:44.912Z,995.02
2018-02-02T10:45:10.389Z,994.99
2018-02-02T10:45:35.981Z,995.03
2018-02-02T10:46:01.409Z,994.96
2018-02-02T10:46:26.914Z,995.01
2018-02-02T10:46:52.402Z,994.99
2018-02-02T10:47:17.858Z,995.02
2018-02-02T10:47:43.343Z,995
2018-02-02T10:48:08.836Z,994.99
2018-02-02T10:48:34.356Z,994.98
2018-02-02T10:48:59.830Z,994.98
2018-02-02T10:49:25.273Z,995.01
2018-02-02T10:49:50.796Z,995
2018-02-02T10:50:16.324Z,995.01
2018-02-02T10:51:35.291Z,995.01
2018-02-02T10:52:00.769Z,995.04
2018-02-02T10:52:26.235Z,995.03
2018-02-02T10:52:51.733Z,995.04
2018-02-02T10:53:17.210Z,995.04
2018-02-02T10:53:42.673Z,995.01
2018-02-02T10:54:56.445Z,995.07
2018-02-02T10:55:21.970Z,995.07
2018-02-02T10:55:47.399Z,995.08
2018-02-02T10:56:12.872Z,995.05
2018-02-02T10:56:38.349Z,995.02
2018-02-02T10:57:03.863Z,995.04
2018-02-02T10:57:29.336Z,995.04
2018-02-02T10:57:54.871Z,995
2018-02-02T10:58:20.379Z,995.03
2018-02-02T10:58:45.873Z,995.02
2018-02-02T10:59:11.373Z,995.03
2018-02-02T10:59:36.878Z,995.05
2018-02-02T11:00:02.372Z,995.01
2018-02-02T11:00:27.858Z,995.04
2018-02-02T11:00:53.333Z,995.03
2018-02-02T11:01:18.809Z,995
2018-02-02T11:01:44.336Z,994.99
2018-02-02T11:02:09.856Z,995.02
2018-02-02T11:02:35.323Z,995.02
2018-02-02T11:03:00.794Z,995.06
2018-02-02T11:03:26.330Z,995.01
2018-02-02T11:03:51.798Z,995.03
2018-02-02T11:04:17.309Z,995
2018-02-02T11:04:42.798Z,995.03
2018-02-02T11:05:08.293Z,995.02
2018-02-02T11:05:33.779Z,995.02
2018-02-02T11:05:59.283Z,995.06
2018-02-02T11:06:24.766Z,995
2018-02-02T11:06:50.292Z,995.06
2018-02-02T11:07:48.802Z,995.05
2018-02-02T11:08:14.330Z,995.04
2018-02-02T11:08:39.811Z,995.08
2018-02-02T11:09:48.528Z,995.06
2018-02-02T11:10:14.021Z,995.05
2018-02-02T11:10:39.496Z,995.05
2018-02-02T11:11:04.979Z,995.1
2018-02-02T11:11:30.479Z,995.07
2018-02-02T11:11:55.982Z,995.08
2018-02-02T11:12:21.466Z,995.04
2018-02-02T11:12:47.001Z,995.05
2018-02-02T11:13:12.503Z,995.05
2018-02-02T11:13:37.968Z,995.05
2018-02-02T11:14:03.446Z,995.07
2018-02-02T11:14:28.924Z,995.03
2018-02-02T11:14:54.395Z,995.03
2018-02-02T11:15:19.992Z,995.07
2018-02-02T11:15:45.489Z,995.01
2018-02-02T11:16:10.955Z,995.07